Portada
METAR-TAF:

METAR-TAF

Aeroports :

Kununurra, Austràlia

latitud: 15-46S, longitud: 128-42E, altitud: 44 m

Observació

L'informe es va fer fa 21 minuts, a les 00:30 UTC
Vent 3 kt del Nord
Temperatura 31°C
Humitat 63%
Pressió 1012 hPa
Visibilitat 10 km o més
Cel ennuvolat a una alçada de 12000 ft

METAR: YPKU 200030Z AUTO 36003KT 9999 // BKN120 31/23 Q1012 RF00.0/000.0

Hora: 08:51 (00:51 UTC)

Pronòstic

L'informe es va fer fa 6 hores i 2 minuts, a les 18:49 UTC
Pronòstic vàlid del 19 a les 20 UTC al 20 a les 08 UTC
Vent 5 kt amb direcció variable
Visibilitat 10 km o més
sense núvols per sota de 1500 mi sense presència de cumulonimbus.
Probabilitat 30% :
Temporalment
l' 20 a les 05 UTC al 20 a les 08 UTC
Vent 20 kt amb direcció variable amb ràfegues de 30 kt
Visibilitat: 6000 m
Núvols disperses a una alçada de 3000 ft
Escasses núvols a una alçada de 8000 ft, Cumulonimbus.
tempesta, pluja

TAF: YPKU 191849Z 1920/2008 VRB05KT CAVOK PROB30 TEMPO 2005/2008 VRB20G30KT 6000 TSRA SCT030 FEW080CB

Observacions i pronòstics meteorològics de més de 4000 aeroports (METAR i TAF).

Les estacions disponibles són els punts grocs i vermells al mapa.

Posi el ratolí al punt desitjat per veure el nom de l'estació.

Feu clic per veure les observacions i els pronòstics meteorològics.

Per canviar el mapa: feu clic els botons verds amb una creu de color negre per apropar; al botó verd amb un guió per allunyar la imatge; o en les fletxes verdes per a mapes adjacents.


METAR-TAF: